Time;durP1;ratioP1;P1;durP2;ratioP2;P2;SDS_P1;SDS_P2;PMS_P1;PMS_P2;Temp;Humidity;BMP_temperature;BMP_pressure;BME280_temperature;BME280_humidity;BME280_pressure;Samples;Min_cycle;Max_cycle;Signal;HPM_P1;HPM_P2
2023/03/20 00:01:20;;;;;;;10.30;5.40;;;;;;;;;;5055129;28;20416;-78
2023/03/20 00:03:46;;;;;;;10.77;5.22;;;;;;;;;;5054767;28;20502;-78
2023/03/20 00:06:15;;;;;;;10.98;5.40;;;;;;;;;;5054781;28;21053;-78
2023/03/20 00:08:44;;;;;;;8.48;4.68;;;;;;;;;;5055646;28;20427;-78
2023/03/20 00:11:36;;;;;;;9.80;5.60;;;;;;;;;;5056724;28;20488;-78
2023/03/20 00:14:04;;;;;;;11.30;5.20;;;;;;;;;;5049059;28;20463;-78
2023/03/20 00:16:32;;;;;;;9.55;5.40;;;;;;;;;;5053501;28;20426;-78
2023/03/20 00:18:59;;;;;;;9.60;5.17;;;;;;;;;;5054912;28;20942;-78
2023/03/20 00:21:25;;;;;;;11.27;5.50;;;;;;;;;;5053340;28;21161;-78
2023/03/20 00:23:51;;;;;;;13.82;5.70;;;;;;;;;;5051455;28;20426;-78
2023/03/20 00:26:18;;;;;;;11.52;5.60;;;8.00;99.90;;;;;;5055510;28;20494;-78
2023/03/20 00:28:48;;;;;;;10.05;5.60;;;;;;;;;;5037577;28;20610;-78
2023/03/20 00:31:34;;;;;;;10.80;5.90;;;;;;;;;;5055369;28;20446;-78
2023/03/20 00:34:01;;;;;;;10.60;5.75;;;;;;;;;;5050795;28;20514;-78
2023/03/20 00:36:27;;;;;;;11.00;5.80;;;;;;;;;;5047536;28;20420;-78
2023/03/20 00:38:55;;;;;;;12.57;6.87;;;;;;;;;;5055872;28;20423;-78
2023/03/20 00:41:26;;;;;;;11.00;5.90;;;;;;;;;;5040127;28;20739;-78
2023/03/20 00:44:03;;;;;;;11.85;6.03;;;;;;;;;;5052286;28;20430;-78
2023/03/20 00:46:37;;;;;;;12.55;6.78;;;;;;;;;;5054802;28;20990;-78
2023/03/20 00:49:04;;;;;;;10.60;5.85;;;;;;;;;;5053421;28;20490;-78
2023/03/20 00:51:30;;;;;;;13.27;6.45;;;;;;;;;;5050841;28;20514;-78
2023/03/20 00:53:56;;;;;;;13.07;6.72;;;;;;;;;;5056010;28;20435;-78
2023/03/20 00:56:35;;;;;;;14.10;6.78;;;8.10;99.90;;;;;;5053064;28;20498;-78
2023/03/20 00:59:02;;;;;;;12.38;7.00;;;;;;;;;;5047404;28;20428;-78
2023/03/20 01:01:28;;;;;;;12.98;7.00;;;;;;;;;;5053803;28;20545;-78
2023/03/20 01:03:55;;;;;;;15.77;7.35;;;;;;;;;;5036524;28;20503;-77
2023/03/20 01:06:21;;;;;;;11.65;7.22;;;;;;;;;;5054531;28;20415;-78
2023/03/20 01:08:47;;;;;;;13.17;7.20;;;;;;;;;;5055975;28;20899;-78
2023/03/20 01:11:14;;;;;;;15.95;7.80;;;;;;;;;;5053249;28;20419;-78
2023/03/20 01:13:40;;;;;;;15.57;7.68;;;;;;;;;;5038413;28;20415;-77
2023/03/20 01:16:17;;;;;;;14.77;7.68;;;;;;;;;;5055481;28;20404;-78
2023/03/20 01:18:43;;;;;;;17.15;8.00;;;;;;;;;;5052069;28;20434;-78
2023/03/20 01:21:09;;;;;;;15.50;8.20;;;;;;;;;;5035613;28;20423;-78
2023/03/20 01:23:35;;;;;;;17.38;8.43;;;;;;;;;;5055260;28;20396;-78
2023/03/20 01:26:01;;;;;;;16.05;8.73;;;;;;;;;;5054202;28;20427;-78
2023/03/20 01:28:29;;;;;;;18.33;8.43;;;8.00;99.90;;;;;;5054323;28;20428;-78
2023/03/20 01:30:55;;;;;;;19.77;8.98;;;;;;;;;;5070077;28;20420;-78
2023/03/20 01:33:25;;;;;;;17.52;8.77;;;8.10;99.90;;;;;;5054306;28;20810;-78
2023/03/20 01:35:51;;;;;;;22.65;9.27;;;;;;;;;;5052897;28;20791;-78
2023/03/20 01:38:22;;;;;;;23.25;9.23;;;;;;;;;;5055019;28;20400;-78
2023/03/20 01:40:48;;;;;;;19.80;9.43;;;;;;;;;;5035467;28;20810;-78
2023/03/20 01:43:17;;;;;;;25.13;9.45;;;8.00;99.90;;;;;;5054810;28;20400;-78
2023/03/20 01:46:08;;;;;;;22.48;9.20;;;8.20;99.90;;;;;;5050975;28;20756;-78
2023/03/20 01:48:49;;;;;;;22.33;9.02;;;;;;;;;;5035175;28;20402;-78
2023/03/20 01:51:16;;;;;;;18.15;8.43;;;;;;;;;;5050847;28;20423;-78
2023/03/20 01:53:42;;;;;;;22.90;8.93;;;;;;;;;;5052876;28;20431;-78
2023/03/20 01:56:09;;;;;;;28.23;9.40;;;;;;;;;;5055145;28;20889;-78
2023/03/20 01:58:40;;;;;;;19.55;8.98;;;8.20;99.90;;;;;;5033450;28;20757;-78
2023/03/20 02:01:08;;;;;;;17.83;8.68;;;;;;;;;;5041202;28;20421;-78
2023/03/20 02:03:34;;;;;;;19.90;8.48;;;;;;;;;;5049161;28;20416;-79
2023/03/20 02:06:00;;;;;;;22.05;9.10;;;;;;;;;;5052193;28;20545;-78
2023/03/20 02:08:27;;;;;;;21.75;8.50;;;;;;;;;;5054818;28;20427;-78
2023/03/20 02:10:54;;;;;;;18.42;7.53;;;;;;;;;;5050400;28;20502;-78
2023/03/20 02:13:20;;;;;;;18.15;7.70;;;;;;;;;;5053533;28;20415;-78
2023/03/20 02:16:04;;;;;;;19.65;7.90;;;;;;;;;;5052458;28;20921;-78
2023/03/20 02:18:31;;;;;;;14.53;7.63;;;;;;;;;;5071051;28;20497;-79
2023/03/20 02:21:16;;;;;;;22.42;7.60;;;8.00;99.90;;;;;;5053232;28;20914;-78
2023/03/20 02:23:57;;;;;;;19.42;7.43;;;;;;;;;;5019304;28;20909;-79
2023/03/20 02:26:48;;;;;;;18.83;8.20;;;8.00;99.90;;;;;;5050682;28;20424;-79
2023/03/20 02:29:31;;;;;;;18.90;8.38;;;;;;;;;;5052718;28;20431;-79
2023/03/20 02:32:16;;;;;;;20.17;8.60;;;;;;;;;;5052740;28;20910;-79
2023/03/20 02:34:42;;;;;;;18.20;9.15;;;;;;;;;;5050979;28;20434;-79
2023/03/20 02:37:29;;;;;;;18.55;9.30;;;8.00;99.90;;;;;;5052762;28;20495;-79
2023/03/20 02:40:11;;;;;;;23.45;10.25;;;;;;;;;;5053956;28;20434;-79
2023/03/20 02:42:46;;;;;;;18.30;9.70;;;;;;;;;;5047552;28;20427;-79
2023/03/20 02:45:12;;;;;;;20.98;9.88;;;;;;;;;;5052321;28;20431;-79
2023/03/20 02:47:38;;;;;;;21.45;10.02;;;;;;;;;;5054112;28;20454;-79
2023/03/20 02:50:26;;;;;;;20.42;10.13;;;8.20;99.90;;;;;;5036842;28;20749;-79
2023/03/20 02:52:55;;;;;;;22.55;10.52;;;;;;;;;;5050307;28;21908;-79
2023/03/20 02:55:21;;;;;;;20.60;10.03;;;;;;;;;;5036271;28;20429;-79
2023/03/20 02:57:57;;;;;;;19.75;10.15;;;;;;;;;;5050495;28;20415;-79
2023/03/20 03:00:23;;;;;;;23.93;10.30;;;;;;;;;;5053002;28;20488;-78
2023/03/20 03:02:57;;;;;;;21.45;10.55;;;7.90;99.90;;;;;;5053010;28;20423;-78
2023/03/20 03:05:31;;;;;;;21.00;10.20;;;;;;;;;;5050929;28;20484;-78
2023/03/20 03:07:59;;;;;;;18.85;10.05;;;8.10;99.90;;;;;;5052125;28;20828;-78
2023/03/20 03:10:35;;;;;;;22.73;10.50;;;8.00;99.90;;;;;;5051929;28;20459;-78
2023/03/20 03:13:03;;;;;;;20.73;10.40;;;8.30;99.90;;;;;;5052500;28;20435;-78
2023/03/20 03:15:31;;;;;;;19.55;10.25;;;;;;;;;;5048929;28;20451;-78
2023/03/20 03:17:59;;;;;;;21.00;10.20;;;8.00;99.90;;;;;;5051680;28;20972;-78
2023/03/20 03:20:35;;;;;;;24.60;10.73;;;;;;;;;;5034080;28;20427;-78
2023/03/20 03:23:02;;;;;;;20.60;9.70;;;;;;;;;;5053638;28;20407;-78
2023/03/20 03:25:31;;;;;;;20.33;10.02;;;;;;;;;;5050392;28;20918;-78
2023/03/20 03:28:01;;;;;;;22.23;10.10;;;;;;;;;;5052802;28;20814;-80
2023/03/20 03:30:28;;;;;;;19.53;9.43;;;;;;;;;;5035345;28;20771;-79
2023/03/20 03:33:10;;;;;;;17.42;9.30;;;8.10;99.90;;;;;;5052271;28;20458;-79
2023/03/20 03:35:36;;;;;;;19.10;9.90;;;;;;;;;;5049948;28;20476;-80
2023/03/20 03:38:18;;;;;;;13.35;8.63;;;;;;;;;;5051501;28;20925;-79
2023/03/20 03:40:46;;;;;;;17.90;9.07;;;;;;;;;;5035207;28;20434;-79
2023/03/20 03:43:41;;;;;;;16.33;9.00;;;8.10;99.90;;;;;;5052543;28;20438;-79
2023/03/20 03:46:11;;;;;;;17.27;9.05;;;;;;;;;;5035349;28;20885;-79
2023/03/20 03:48:40;;;;;;;18.02;8.77;;;;;;;;;;5053100;28;20407;-79
2023/03/20 03:51:08;;;;;;;17.45;8.88;;;;;;;;;;5051438;28;20419;-79
2023/03/20 03:53:37;;;;;;;18.88;9.68;;;;;;;;;;5032219;28;20471;-79
2023/03/20 03:56:10;;;;;;;19.42;9.55;;;;;;;;;;5036391;28;20492;-79
2023/03/20 03:58:46;;;;;;;18.97;9.30;;;8.00;99.90;;;;;;5051582;28;20532;-79
2023/03/20 04:01:15;;;;;;;16.10;8.65;;;8.10;99.90;;;;;;5035602;28;20429;-79
2023/03/20 04:03:43;;;;;;;16.23;9.15;;;;;;;;;;5033768;28;20754;-79
2023/03/20 04:06:11;;;;;;;19.55;8.90;;;;;;;;;;5052080;28;20421;-80
2023/03/20 04:08:39;;;;;;;17.90;9.45;;;;;;;;;;5038221;28;20463;-79
2023/03/20 04:11:06;;;;;;;17.25;8.80;;;;;;;;;;5056637;28;20442;-79
2023/03/20 04:13:32;;;;;;;17.45;8.82;;;;;;;;;;5055116;28;20411;-80
2023/03/20 04:15:58;;;;;;;16.63;8.93;;;;;;;;;;5056037;28;20772;-80
2023/03/20 04:18:24;;;;;;;20.02;9.63;;;;;;;;;;5055424;28;20868;-79
2023/03/20 04:20:51;;;;;;;16.90;9.30;;;;;;;;;;5055578;28;20440;-79
2023/03/20 04:23:17;;;;;;;18.83;9.38;;;;;;;;;;5054402;28;20503;-79
2023/03/20 04:25:43;;;;;;;16.17;9.53;;;;;;;;;;5055201;28;20416;-80
2023/03/20 04:28:10;;;;;;;16.15;9.18;;;;;;;;;;5036095;28;20418;-80
2023/03/20 04:30:36;;;;;;;15.35;8.50;;;;;;;;;;5036736;28;20829;-79
2023/03/20 04:33:02;;;;;;;16.77;8.55;;;;;;;;;;5037391;28;20418;-79
2023/03/20 04:35:28;;;;;;;20.15;8.73;;;;;;;;;;5052588;28;20431;-79
2023/03/20 04:37:54;;;;;;;15.15;8.25;;;;;;;;;;5038768;28;20415;-79
2023/03/20 04:40:20;;;;;;;17.88;8.70;;;;;;;;;;5054328;28;20503;-79
2023/03/20 04:42:47;;;;;;;15.00;8.43;;;;;;;;;;5054859;28;20470;-79
2023/03/20 04:45:13;;;;;;;15.57;8.65;;;;;;;;;;5054774;28;20447;-79
2023/03/20 04:47:39;;;;;;;15.82;8.60;;;;;;;;;;5039383;28;20898;-79
2023/03/20 04:50:06;;;;;;;17.33;8.18;;;;;;;;;;5054109;28;20419;-79
2023/03/20 04:52:32;;;;;;;13.57;8.48;;;;;;;;;;5035808;28;20922;-79
2023/03/20 04:54:58;;;;;;;14.70;8.40;;;;;;;;;;5053763;28;20817;-79
2023/03/20 04:57:24;;;;;;;15.67;8.20;;;;;;;;;;5022829;28;20895;-79
2023/03/20 04:59:50;;;;;;;15.45;8.70;;;;;;;;;;5053498;28;20427;-79
2023/03/20 05:02:16;;;;;;;15.18;8.38;;;;;;;;;;5034925;28;20430;-79
2023/03/20 05:04:42;;;;;;;16.73;7.85;;;;;;;;;;5053447;28;20420;-80
2023/03/20 05:07:09;;;;;;;16.47;8.10;;;;;;;;;;5055778;28;20553;-79
2023/03/20 05:09:35;;;;;;;17.75;8.32;;;;;;;;;;5021423;28;20954;-79
2023/03/20 05:12:01;;;;;;;13.65;8.05;;;;;;;;;;5053778;28;20419;-79
2023/03/20 05:14:27;;;;;;;16.70;8.15;;;;;;;;;;5054953;28;20902;-79
2023/03/20 05:16:53;;;;;;;18.20;8.52;;;;;;;;;;5051340;28;20772;-78
2023/03/20 05:19:19;;;;;;;13.95;8.45;;;;;;;;;;5053145;28;20424;-79
2023/03/20 05:21:45;;;;;;;17.88;8.60;;;;;;;;;;5037162;28;20416;-79
2023/03/20 05:24:11;;;;;;;14.80;8.90;;;;;;;;;;5038219;28;20415;-79
2023/03/20 05:26:37;;;;;;;16.98;9.23;;;;;;;;;;5035377;28;20420;-78
2023/03/20 05:29:04;;;;;;;17.63;8.90;;;;;;;;;;5053746;28;20416;-79
2023/03/20 05:31:30;;;;;;;15.97;8.97;;;;;;;;;;5052742;28;20431;-79
2023/03/20 05:33:56;;;;;;;16.55;8.90;;;;;;;;;;5037112;28;20475;-79
2023/03/20 05:36:22;;;;;;;15.90;8.80;;;;;;;;;;5013266;28;20492;-78
2023/03/20 05:38:48;;;;;;;22.58;8.98;;;;;;;;;;5050264;28;20423;-78
2023/03/20 05:41:14;;;;;;;16.67;8.98;;;;;;;;;;5034936;28;20401;-78
2023/03/20 05:43:40;;;;;;;17.33;9.60;;;;;;;;;;5035681;28;20497;-78
2023/03/20 05:46:06;;;;;;;18.20;8.95;;;;;;;;;;5038189;28;20414;-78
2023/03/20 05:48:32;;;;;;;17.85;9.43;;;;;;;;;;5037911;28;20422;-78
2023/03/20 05:50:59;;;;;;;16.63;9.60;;;;;;;;;;5052906;28;20816;-78
2023/03/20 05:53:25;;;;;;;19.40;10.70;;;;;;;;;;5053811;28;20451;-78
2023/03/20 05:55:51;;;;;;;20.33;10.65;;;;;;;;;;5054316;28;20926;-79
2023/03/20 05:58:17;;;;;;;18.10;10.98;;;;;;;;;;5053103;28;21192;-78
2023/03/20 06:00:43;;;;;;;17.42;10.43;;;;;;;;;;5053727;28;20772;-78
2023/03/20 06:03:10;;;;;;;16.17;10.27;;;;;;;;;;5053424;28;20749;-78
2023/03/20 06:05:37;;;;;;;19.58;10.65;;;;;;;;;;5052456;28;20430;-78
2023/03/20 06:08:03;;;;;;;19.75;11.45;;;;;;;;;;5049613;28;20430;-78
2023/03/20 06:10:29;;;;;;;19.50;11.73;;;;;;;;;;5054430;28;20404;-78
2023/03/20 06:12:56;;;;;;;20.60;11.23;;;;;;;;;;5037423;28;20481;-79
2023/03/20 06:15:22;;;;;;;17.80;11.17;;;;;;;;;;5036058;28;21013;-79
2023/03/20 06:17:48;;;;;;;19.02;10.77;;;;;;;;;;5049113;28;20431;-78
2023/03/20 06:20:15;;;;;;;17.58;9.85;;;;;;;;;;5051287;28;20435;-79
2023/03/20 06:22:41;;;;;;;17.33;10.57;;;;;;;;;;5051693;28;20911;-79
2023/03/20 06:25:07;;;;;;;19.00;10.90;;;;;;;;;;5033369;28;20476;-79
2023/03/20 06:27:34;;;;;;;16.90;10.30;;;;;;;;;;5052943;28;20410;-79
2023/03/20 06:30:00;;;;;;;18.73;10.35;;;;;;;;;;5037822;28;20530;-79
2023/03/20 06:32:26;;;;;;;18.17;10.27;;;;;;;;;;5019297;28;20449;-79
2023/03/20 06:34:53;;;;;;;17.83;10.40;;;;;;;;;;5035924;28;20459;-77
2023/03/20 06:37:19;;;;;;;19.13;11.15;;;;;;;;;;5037696;28;20754;-77
2023/03/20 06:39:45;;;;;;;18.45;10.27;;;;;;;;;;5034118;28;20428;-77
2023/03/20 06:42:12;;;;;;;17.00;10.00;;;;;;;;;;5036204;28;20419;-77
2023/03/20 06:44:38;;;;;;;17.05;10.52;;;;;;;;;;5051407;28;20490;-77
2023/03/20 06:47:04;;;;;;;19.65;10.35;;;;;;;;;;5033133;28;20425;-77
2023/03/20 06:49:31;;;;;;;17.92;9.93;;;;;;;;;;5039009;28;20529;-77
2023/03/20 06:51:58;;;;;;;17.92;9.90;;;;;;;;;;5032945;28;20453;-77
2023/03/20 06:54:24;;;;;;;17.95;9.45;;;;;;;;;;5037840;28;20734;-77
2023/03/20 06:56:50;;;;;;;18.48;11.00;;;;;;;;;;5052562;28;20477;-77
2023/03/20 06:59:17;;;;;;;17.48;9.73;;;;;;;;;;5033772;28;20426;-76
2023/03/20 07:01:43;;;;;;;19.38;10.20;;;;;;;;;;5048615;28;20530;-76
2023/03/20 07:04:09;;;;;;;16.42;10.20;;;;;;;;;;5049185;28;20416;-77
2023/03/20 07:06:35;;;;;;;17.10;10.52;;;;;;;;;;5047988;28;20455;-77
2023/03/20 07:09:01;;;;;;;17.88;10.48;;;;;;;;;;5052011;28;20502;-77
2023/03/20 07:11:28;;;;;;;17.25;10.63;;;;;;;;;;5048669;28;20510;-77
2023/03/20 07:13:55;;;;;;;18.08;10.55;;;;;;;;;;5045748;28;20493;-77
2023/03/20 07:16:21;;;;;;;19.85;10.90;;;;;;;;;;5045323;28;20930;-77
2023/03/20 07:18:47;;;;;;;19.20;10.77;;;;;;;;;;5051748;28;20419;-76
2023/03/20 07:21:18;;;;;;;17.50;10.35;;;8.30;99.90;;;;;;5034005;28;20431;-77
2023/03/20 07:23:44;;;;;;;19.73;11.10;;;;;;;;;;5030845;28;20415;-76
2023/03/20 07:26:11;;;;;;;19.80;10.93;;;;;;;;;;5033341;28;20415;-77
2023/03/20 07:28:37;;;;;;;16.98;10.45;;;;;;;;;;5051530;28;20491;-76
2023/03/20 07:31:03;;;;;;;19.55;11.20;;;;;;;;;;5019103;28;20451;-76
2023/03/20 07:33:29;;;;;;;23.02;11.35;;;;;;;;;;5036246;28;20767;-76
2023/03/20 07:35:55;;;;;;;20.88;11.30;;;;;;;;;;5048753;28;20415;-76
2023/03/20 07:38:22;;;;;;;18.70;11.00;;;;;;;;;;5030301;28;20416;-76
2023/03/20 07:40:48;;;;;;;18.83;11.10;;;;;;;;;;5053998;28;20922;-76
2023/03/20 07:43:15;;;;;;;19.70;10.93;;;;;;;;;;5037556;28;20806;-76
2023/03/20 07:45:41;;;;;;;17.23;10.65;;;;;;;;;;5037175;28;20426;-76
2023/03/20 07:48:07;;;;;;;20.85;11.07;;;;;;;;;;5050705;28;20415;-77
2023/03/20 07:50:33;;;;;;;22.15;12.05;;;;;;;;;;5052707;28;20419;-76
2023/03/20 07:52:59;;;;;;;23.27;11.77;;;;;;;;;;5039264;28;20469;-76
2023/03/20 07:55:25;;;;;;;20.77;11.73;;;;;;;;;;5052706;28;20510;-76
2023/03/20 07:57:52;;;;;;;22.13;12.30;;;;;;;;;;5052864;28;20419;-76
2023/03/20 08:00:18;;;;;;;20.57;11.70;;;;;;;;;;5053680;28;20498;-76
2023/03/20 08:02:45;;;;;;;20.50;12.03;;;;;;;;;;5053191;28;20925;-77
2023/03/20 08:05:11;;;;;;;19.67;11.27;;;;;;;;;;5051648;28;20427;-77
2023/03/20 08:07:37;;;;;;;21.50;11.50;;;;;;;;;;5020044;28;20484;-76
2023/03/20 08:10:03;;;;;;;20.55;12.02;;;;;;;;;;5036529;28;20906;-76
2023/03/20 08:12:29;;;;;;;24.30;11.52;;;;;;;;;;5033788;28;20473;-76
2023/03/20 08:14:55;;;;;;;22.25;11.57;;;;;;;;;;5054010;28;21142;-76
2023/03/20 08:17:21;;;;;;;20.33;11.38;;;;;;;;;;5036335;28;20438;-76
2023/03/20 08:19:47;;;;;;;19.95;11.88;;;;;;;;;;5058593;28;20418;-76
2023/03/20 08:22:13;;;;;;;22.87;12.57;;;;;;;;;;5056662;28;20396;-77
2023/03/20 08:24:40;;;;;;;19.58;11.10;;;;;;;;;;5039147;28;20408;-76
2023/03/20 08:27:06;;;;;;;19.95;11.05;;;;;;;;;;5054221;28;20930;-77
2023/03/20 08:29:32;;;;;;;21.63;11.70;;;;;;;;;;5052959;28;20430;-76
2023/03/20 08:31:58;;;;;;;18.65;11.60;;;;;;;;;;5050189;28;20438;-76
2023/03/20 08:34:25;;;;;;;20.95;11.45;;;;;;;;;;5047233;28;20423;-76
2023/03/20 08:36:51;;;;;;;18.10;11.48;;;;;;;;;;5021050;28;20940;-76
2023/03/20 08:39:17;;;;;;;19.77;11.32;;;;;;;;;;5031500;28;20430;-77
2023/03/20 08:41:44;;;;;;;20.05;10.90;;;;;;;;;;5037850;28;20419;-76
2023/03/20 08:44:11;;;;;;;20.37;11.27;;;;;;;;;;5036144;28;20528;-77
2023/03/20 08:46:38;;;;;;;19.20;11.13;;;;;;;;;;5049768;28;20818;-76
2023/03/20 08:49:05;;;;;;;19.27;10.65;;;;;;;;;;5013621;28;20431;-76
2023/03/20 08:51:31;;;;;;;19.05;10.90;;;;;;;;;;5031269;28;20453;-77
2023/03/20 08:53:57;;;;;;;19.13;11.05;;;;;;;;;;5032443;28;20420;-76
2023/03/20 08:56:23;;;;;;;20.88;10.98;;;;;;;;;;5054598;28;20424;-76
2023/03/20 08:58:51;;;;;;;19.02;10.98;;;;;;;;;;5037979;28;20828;-77
2023/03/20 09:01:18;;;;;;;17.75;10.90;;;;;;;;;;5037895;28;20426;-76
2023/03/20 09:03:44;;;;;;;18.63;10.52;;;;;;;;;;5032832;28;20455;-76
2023/03/20 09:06:10;;;;;;;18.50;10.90;;;;;;;;;;5050222;28;20496;-76
2023/03/20 09:08:37;;;;;;;20.45;11.15;;;;;;;;;;5052967;28;20473;-76
2023/03/20 09:11:03;;;;;;;17.45;10.32;;;;;;;;;;5054427;28;20415;-76
2023/03/20 09:13:29;;;;;;;18.77;10.57;;;;;;;;;;5018656;28;20453;-76
2023/03/20 09:15:56;;;;;;;19.08;10.65;;;;;;;;;;5023691;28;20506;-77
2023/03/20 09:18:22;;;;;;;16.17;9.75;;;;;;;;;;5052380;28;21066;-77
2023/03/20 09:20:48;;;;;;;15.80;9.10;;;;;;;;;;5035655;28;20419;-76
2023/03/20 09:23:14;;;;;;;14.95;9.75;;;;;;;;;;5052103;28;20445;-76
2023/03/20 09:25:40;;;;;;;16.93;10.03;;;;;;;;;;5051469;28;20416;-77
2023/03/20 09:28:07;;;;;;;16.77;9.48;;;;;;;;;;5049430;28;20452;-76
2023/03/20 09:30:33;;;;;;;17.63;10.27;;;;;;;;;;5036017;28;20420;-77
2023/03/20 09:32:59;;;;;;;17.20;9.07;;;;;;;;;;5034730;28;20416;-77
2023/03/20 09:35:25;;;;;;;17.10;9.45;;;;;;;;;;5032027;28;20421;-76
2023/03/20 09:37:51;;;;;;;17.40;9.60;;;;;;;;;;5054150;28;20416;-77
2023/03/20 09:40:24;;;;;;;16.02;9.43;;;;;;;;;;5049944;28;20428;-76
2023/03/20 09:42:50;;;;;;;18.13;9.63;;;;;;;;;;5045352;28;20505;-77
2023/03/20 09:45:19;;;;;;;17.60;9.60;;;;;;;;;;5029717;28;20433;-77
2023/03/20 09:48:02;;;;;;;19.20;10.25;;;;;;;;;;5042956;28;20417;-77
2023/03/20 09:50:34;;;;;;;16.42;9.75;;;10.60;99.90;;;;;;5045307;28;20433;-77
2023/03/20 09:53:06;;;;;;;17.58;9.68;;;;;;;;;;5020231;28;20427;-77
2023/03/20 09:55:36;;;;;;;13.68;9.35;;;;;;;;;;5038951;28;20432;-77
2023/03/20 09:58:07;;;;;;;19.93;10.00;;;;;;;;;;5019513;28;20818;-77
2023/03/20 10:00:34;;;;;;;20.50;10.23;;;;;;;;;;5038955;28;20425;-77
2023/03/20 10:03:02;;;;;;;19.38;10.40;;;;;;;;;;5039304;28;20759;-77
2023/03/20 10:05:30;;;;;;;16.60;9.57;;;;;;;;;;5040475;28;20424;-76
2023/03/20 10:07:58;;;;;;;18.65;10.30;;;;;;;;;;5046979;28;20424;-77
2023/03/20 10:10:43;;;;;;;18.15;10.07;;;;;;;;;;5046261;28;20504;-77
2023/03/20 10:13:18;;;;;;;18.00;9.45;;;;;;;;;;5046116;28;20417;-77
2023/03/20 10:15:49;;;;;;;17.95;9.98;;;;;;;;;;5026364;28;20494;-77
2023/03/20 10:18:19;;;;;;;17.63;9.43;;;10.70;99.90;;;;;;5036731;28;20422;-78
2023/03/20 10:21:12;;;;;;;19.13;9.40;;;;;;;;;;5029100;28;20719;-78
2023/03/20 10:23:45;;;;;;;18.30;9.27;;;;;;;;;;5041139;28;20751;-76
2023/03/20 10:26:13;;;;;;;16.92;9.32;;;;;;;;;;5048467;28;20964;-76
2023/03/20 10:28:45;;;;;;;17.92;9.07;;;;;;;;;;5024646;28;20851;-76
2023/03/20 10:31:39;;;;;;;19.98;9.63;;;10.80;99.90;;;;;;5040386;28;20499;-76
2023/03/20 10:34:22;;;;;;;17.70;9.20;;;10.90;99.90;;;;;;5040088;28;20423;-77
2023/03/20 10:36:51;;;;;;;16.23;8.60;;;;;;;;;;5060363;28;20768;-77
2023/03/20 10:39:30;;;;;;;21.75;8.95;;;;;;;;;;5046168;28;20479;-77
2023/03/20 10:42:01;;;;;;;16.20;8.77;;;;;;;;;;5041315;28;20441;-77
2023/03/20 10:44:36;;;;;;;16.47;8.90;;;;;;;;;;5048765;28;20423;-77
2023/03/20 10:47:07;;;;;;;15.45;9.05;;;10.80;99.90;;;;;;5030387;28;20431;-77
2023/03/20 10:49:39;;;;;;;15.57;8.27;;;;;;;;;;5049831;28;20506;-76
2023/03/20 10:52:09;;;;;;;16.45;8.00;;;;;;;;;;5054784;28;20462;-77
2023/03/20 10:55:01;;;;;;;16.02;8.48;;;;;;;;;;5054031;28;20422;-76
2023/03/20 10:57:31;;;;;;;18.02;8.70;;;;;;;;;;5011932;28;20910;-76
2023/03/20 10:59:58;;;;;;;15.98;8.20;;;;;;;;;;5052189;28;20454;-77
2023/03/20 11:02:28;;;;;;;16.63;7.72;;;11.20;99.90;;;;;;5044831;28;20802;-77
2023/03/20 11:04:54;;;;;;;15.33;8.63;;;;;;;;;;5034908;28;20422;-77
2023/03/20 11:07:25;;;;;;;14.88;8.15;;;;;;;;;;5055226;28;20772;-77
2023/03/20 11:10:03;;;;;;;14.90;8.00;;;;;;;;;;5051583;28;20419;-77
2023/03/20 11:12:32;;;;;;;14.47;8.63;;;;;;;;;;5049346;28;20521;-77
2023/03/20 11:14:59;;;;;;;18.45;8.50;;;;;;;;;;5050641;28;20419;-77
2023/03/20 11:17:28;;;;;;;15.50;8.20;;;;;;;;;;5034334;28;20911;-77
2023/03/20 11:20:02;;;;;;;19.38;8.27;;;;;;;;;;5033412;28;20760;-77
2023/03/20 11:22:28;;;;;;;15.90;7.72;;;;;;;;;;5033906;28;21064;-77
2023/03/20 11:25:00;;;;;;;16.40;8.00;;;11.00;99.90;;;;;;5048018;28;20431;-77
2023/03/20 11:27:33;;;;;;;13.75;7.85;;;;;;;;;;5046878;28;20413;-76
2023/03/20 11:30:01;;;;;;;12.60;7.25;;;;;;;;;;5050051;28;20937;-76
2023/03/20 11:32:41;;;;;;;13.32;7.13;;;;;;;;;;5048428;28;20515;-76
2023/03/20 11:35:16;;;;;;;13.18;7.13;;;;;;;;;;5044199;28;20454;-76
2023/03/20 11:37:43;;;;;;;13.43;7.22;;;;;;;;;;5029579;28;20508;-77
2023/03/20 11:40:36;;;;;;;18.77;7.60;;;;;;;;;;5031662;28;20851;-77
2023/03/20 11:43:09;;;;;;;11.20;6.60;;;10.90;99.90;;;;;;5025585;28;21466;-77
2023/03/20 11:45:36;;;;;;;14.07;7.13;;;;;;;;;;5048374;28;20775;-78
2023/03/20 11:48:03;;;;;;;12.90;7.30;;;;;;;;;;5031515;28;20431;-77
2023/03/20 11:50:34;;;;;;;14.47;6.70;;;10.30;99.90;;;;;;5047785;28;20466;-77
2023/03/20 11:53:16;;;;;;;11.73;5.68;;;;;;;;;;5048741;28;20522;-77
2023/03/20 11:55:43;;;;;;;16.17;6.68;;;;;;;;;;5048830;28;20462;-77
2023/03/20 11:58:15;;;;;;;11.25;5.45;;;;;;;;;;5044484;28;20431;-77
2023/03/20 12:00:42;;;;;;;10.57;4.40;;;;;;;;;;5032469;28;22066;-78
2023/03/20 12:03:27;;;;;;;10.43;4.80;;;;;;;;;;5031055;28;20469;-77
2023/03/20 12:05:59;;;;;;;11.40;4.78;;;;;;;;;;5044884;28;20746;-77
2023/03/20 12:08:26;;;;;;;10.30;5.55;;;;;;;;;;5045852;28;20506;-77
2023/03/20 12:11:02;;;;;;;10.98;4.93;;;10.00;99.90;;;;;;5049341;28;20416;-78
2023/03/20 12:13:32;;;;;;;10.70;5.10;;;;;;;;;;5046588;28;20992;-78
2023/03/20 12:16:10;;;;;;;11.20;5.80;;;10.10;99.90;;;;;;5034063;28;20461;-77
2023/03/20 12:18:36;;;;;;;11.75;6.50;;;;;;;;;;5045616;28;20434;-76
2023/03/20 12:21:02;;;;;;;12.15;5.82;;;;;;;;;;5047976;28;20432;-77
2023/03/20 12:23:38;;;;;;;12.00;5.95;;;;;;;;;;5046499;28;20439;-77
2023/03/20 12:26:06;;;;;;;11.38;6.05;;;;;;;;;;5053959;28;20477;-77
2023/03/20 12:28:44;;;;;;;13.75;6.47;;;;;;;;;;5048055;28;20430;-77
2023/03/20 12:31:13;;;;;;;11.52;5.82;;;;;;;;;;5048995;28;22047;-77
2023/03/20 12:33:52;;;;;;;11.27;5.90;;;;;;;;;;5054167;28;20427;-77
2023/03/20 12:36:23;;;;;;;13.15;6.53;;;;;;;;;;5050589;28;20423;-77
2023/03/20 12:38:50;;;;;;;14.52;6.50;;;;;;;;;;5052375;28;20818;-77
2023/03/20 12:41:25;;;;;;;12.40;7.22;;;;;;;;;;5053595;28;20426;-76
2023/03/20 12:44:09;;;;;;;12.73;7.55;;;;;;;;;;5030505;28;20458;-77
2023/03/20 12:46:38;;;;;;;17.20;8.70;;;;;;;;;;5046998;28;20471;-77
2023/03/20 12:49:13;;;;;;;12.48;8.15;;;;;;;;;;5031838;28;20417;-77
2023/03/20 12:52:02;;;;;;;14.05;7.47;;;;;;;;;;5049029;28;20755;-76
2023/03/20 12:54:28;;;;;;;16.70;8.20;;;;;;;;;;5051486;28;20881;-77
2023/03/20 12:56:57;;;;;;;15.68;8.77;;;;;;;;;;5046959;28;21073;-77
2023/03/20 12:59:51;;;;;;;13.23;8.15;;;9.10;99.90;;;;;;5047817;28;20423;-77
2023/03/20 13:02:17;;;;;;;14.20;9.10;;;;;;;;;;5039153;28;20748;-75
2023/03/20 13:05:03;;;;;;;17.17;9.70;;;;;;;;;;5031972;28;20933;-76
2023/03/20 13:07:45;;;;;;;16.10;10.20;;;;;;;;;;5053629;28;20469;-76
2023/03/20 13:10:15;;;;;;;16.67;10.20;;;;;;;;;;5037291;28;20834;-76
2023/03/20 13:12:56;;;;;;;16.55;10.60;;;;;;;;;;5049969;28;20514;-76
2023/03/20 13:15:48;;;;;;;17.80;10.70;;;9.00;99.90;;;;;;5032472;28;20434;-76
2023/03/20 13:18:23;;;;;;;15.25;10.73;;;;;;;;;;5051437;28;20423;-76
2023/03/20 13:20:55;;;;;;;16.42;10.27;;;;;;;;;;5044960;28;20426;-76
2023/03/20 13:23:27;;;;;;;16.67;11.55;;;;;;;;;;5041581;28;20478;-76
2023/03/20 13:25:56;;;;;;;15.57;10.68;;;;;;;;;;5047605;28;20415;-76
2023/03/20 13:28:26;;;;;;;15.13;10.10;;;9.00;99.90;;;;;;5035978;28;20415;-76
2023/03/20 13:30:54;;;;;;;14.70;10.50;;;;;;;;;;5050417;28;20461;-77
2023/03/20 13:33:36;;;;;;;13.38;9.98;;;;;;;;;;5033512;28;20454;-76
2023/03/20 13:36:23;;;;;;;16.15;10.90;;;;;;;;;;5025485;28;20424;-77
2023/03/20 13:38:58;;;;;;;17.73;12.03;;;8.90;99.90;;;;;;5036584;28;20434;-77
2023/03/20 13:41:25;;;;;;;17.60;11.10;;;8.60;99.90;;;;;;5050752;28;20424;-78
2023/03/20 13:44:00;;;;;;;19.15;12.95;;;;;;;;;;5038355;28;20910;-78
2023/03/20 13:46:38;;;;;;;18.02;11.70;;;;;;;;;;5049651;28;20462;-76
2023/03/20 13:49:30;;;;;;;16.27;11.20;;;8.70;99.90;;;;;;5032796;28;20435;-77
2023/03/20 13:51:59;;;;;;;17.47;11.90;;;;;;;;;;5028618;28;20928;-76
2023/03/20 13:54:40;;;;;;;19.48;12.32;;;;;;;;;;5048702;28;20672;-76
2023/03/20 13:57:25;;;;;;;16.90;12.05;;;;;;;;;;5052139;28;20476;-76
2023/03/20 14:00:04;;;;;;;17.90;12.55;;;;;;;;;;5046668;28;20423;-76
2023/03/20 14:03:25;;;;;;;19.30;12.97;;;9.00;99.90;;;;;;5031743;28;20553;-77
2023/03/20 14:05:51;;;;;;;24.15;14.13;;;;;;;;;;5018807;28;20578;-76
2023/03/20 14:08:20;;;;;;;19.37;13.77;;;;;;;;;;5029701;28;20399;-76
2023/03/20 14:10:46;;;;;;;19.48;13.07;;;;;;;;;;5051571;28;20524;-76
2023/03/20 14:13:14;;;;;;;19.73;13.07;;;;;;;;;;5052278;28;20502;-75
2023/03/20 14:15:45;;;;;;;21.03;13.87;;;;;;;;;;5031464;28;20504;-75
2023/03/20 14:18:16;;;;;;;19.10;13.18;;;;;;;;;;5040735;28;20425;-75
2023/03/20 14:20:49;;;;;;;20.90;14.10;;;8.80;99.90;;;;;;5051402;28;20459;-75
2023/03/20 14:23:20;;;;;;;19.50;14.88;;;;;;;;;;5032391;28;20415;-75
2023/03/20 14:25:47;;;;;;;24.48;15.68;;;;;;;;;;5051596;28;20407;-75
2023/03/20 14:28:14;;;;;;;21.48;15.52;;;;;;;;;;5051428;28;20523;-75